Time;durP1;ratioP1;P1;durP2;ratioP2;P2;SDS_P1;SDS_P2;PMS_P1;PMS_P2;Temp;Humidity;BMP_temperature;BMP_pressure;BME280_temperature;BME280_humidity;BME280_pressure;Samples;Min_cycle;Max_cycle;Signal;HPM_P1;HPM_P2
2022/11/02 00:00:54;;;;;;;7.70;1.75;;;;;;;15.05;59.99;101277.84;4776302;30;20114;-88
2022/11/02 00:03:20;;;;;;;5.82;1.83;;;;;;;15.14;60.09;101288.97;4801841;29;20546;-88
2022/11/02 00:05:45;;;;;;;9.48;1.85;;;;;;;15.23;60.32;101286.69;4804095;29;20202;-89
2022/11/02 00:08:10;;;;;;;9.85;2.08;;;;;;;15.27;59.82;101282.06;4792513;29;20039;-88
2022/11/02 00:10:36;;;;;;;9.48;1.40;;;;;;;15.20;60.32;101289.53;4778444;30;20031;-88
2022/11/02 00:13:02;;;;;;;9.10;1.65;;;;;;;15.21;60.22;101295.72;4789030;29;20035;-89
2022/11/02 00:15:29;;;;;;;8.65;1.60;;;;;;;15.19;59.44;101282.44;4770996;30;20027;-88
2022/11/02 00:17:59;;;;;;;8.65;1.90;;;;;;;15.32;59.78;101290.66;4798650;29;20059;-89
2022/11/02 00:20:27;;;;;;;12.57;1.40;;;;;;;15.22;59.30;101276.09;4792057;29;20499;-88
2022/11/02 00:22:56;;;;;;;6.47;1.67;;;;;;;15.30;59.48;101293.41;4799905;29;20122;-89
2022/11/02 00:25:23;;;;;;;8.60;1.80;;;;;;;15.18;59.97;101301.19;4798286;29;20096;-89
2022/11/02 00:27:48;;;;;;;11.73;1.83;;;;;;;15.20;59.68;101288.63;4792547;29;20426;-88
2022/11/02 00:30:13;;;;;;;8.57;1.83;;;;;;;15.18;59.00;101278.06;4792906;29;20035;-88
2022/11/02 00:32:39;;;;;;;8.85;1.40;;;;;;;15.23;59.41;101294.66;4782917;30;20462;-88
2022/11/02 00:35:05;;;;;;;5.68;1.30;;;;;;;15.31;58.82;101312.91;4786499;29;20026;-89
2022/11/02 00:37:30;;;;;;;7.18;1.33;;;;;;;15.30;59.35;101290.75;4767874;30;20028;-89
2022/11/02 00:39:56;;;;;;;6.78;1.40;;;;;;;15.26;59.53;101280.34;4781534;29;20461;-88
2022/11/02 00:42:21;;;;;;;10.15;1.50;;;;;;;15.20;59.29;101294.84;4798374;29;20573;-88
2022/11/02 00:44:46;;;;;;;8.02;1.67;;;;;;;15.19;58.46;101281.59;4799981;29;20390;-90
2022/11/02 00:47:12;;;;;;;8.38;1.25;;;;;;;15.27;58.75;101298.03;4791902;29;20095;-90
2022/11/02 00:49:37;;;;;;;5.28;1.67;;;;;;;15.20;58.26;101284.19;4799559;29;20027;-89
2022/11/02 00:52:03;;;;;;;4.57;1.02;;;;;;;15.26;58.51;101296.31;4760909;29;20039;-88
2022/11/02 00:54:28;;;;;;;7.70;1.35;;;;;;;15.15;58.61;101299.53;4796948;29;20031;-88
2022/11/02 00:56:54;;;;;;;4.65;1.23;;;;;;;15.19;58.76;101314.41;4775690;29;20038;-89
2022/11/02 00:59:19;;;;;;;6.00;1.35;;;;;;;15.05;58.96;101307.13;4777640;29;20104;-89
2022/11/02 01:01:46;;;;;;;9.55;1.63;;;;;;;15.02;58.38;101296.66;4790810;29;20027;-89
2022/11/02 01:04:16;;;;;;;4.07;1.10;;;;;;;14.94;58.38;101306.81;4786572;29;20559;-88
2022/11/02 01:06:42;;;;;;;7.95;0.95;;;;;;;14.92;58.70;101314.03;4790600;29;20027;-89
2022/11/02 01:09:08;;;;;;;4.32;1.08;;;;;;;14.89;58.40;101300.88;4793560;29;20050;-88
2022/11/02 01:11:33;;;;;;;5.88;1.20;;;;;;;14.85;58.72;101320.59;4785232;29;20034;-89
2022/11/02 01:13:59;;;;;;;5.80;1.35;;;;;;;14.84;59.01;101324.22;4798209;29;20030;-89
2022/11/02 01:16:24;;;;;;;5.72;1.40;;;;;;;14.84;58.58;101334.00;4803496;29;20256;-89
2022/11/02 01:18:55;;;;;;;6.90;1.42;;;;;;;14.90;59.39;101345.19;4793779;29;20034;-89
2022/11/02 01:21:20;;;;;;;7.72;1.10;;;;;;;14.70;58.92;101322.25;4771143;29;20057;-88
2022/11/02 01:23:46;;;;;;;5.68;1.10;;;;;;;14.66;58.22;101330.44;4773626;29;20028;-89
2022/11/02 01:26:12;;;;;;;7.15;1.50;;;;;;;14.66;58.59;101333.97;4779758;29;20023;-89
2022/11/02 01:28:38;;;;;;;5.13;1.73;;;;;;;14.64;57.86;101333.19;4778603;30;20066;-88
2022/11/02 01:31:04;;;;;;;6.28;1.55;;;;;;;14.62;58.62;101329.72;4774816;29;20031;-89
2022/11/02 01:33:30;;;;;;;9.07;1.27;;;;;;;14.64;59.16;101341.19;4777226;30;20409;-89
2022/11/02 01:35:56;;;;;;;6.40;1.50;;;;;;;14.62;58.00;101360.81;4771942;30;20031;-88
2022/11/02 01:38:21;;;;;;;10.75;1.45;;;;;;;14.49;58.19;101342.75;4762726;29;20047;-89
2022/11/02 01:40:46;;;;;;;7.30;1.27;;;;;;;14.39;58.72;101351.22;4779068;30;20031;-88
2022/11/02 01:43:33;;;;;;;6.30;1.50;;;;;;;14.47;58.47;101355.25;4785645;29;20054;-88
2022/11/02 01:46:10;;;;;;;5.30;1.10;;;;;;;14.35;58.72;101353.16;4763662;30;20050;-89
2022/11/02 01:48:41;;;;;;;7.13;1.23;;;;;;;14.17;58.81;101344.25;4770236;30;20038;-90
2022/11/02 01:51:14;;;;;;;2.88;1.05;;;;;;;14.10;59.11;101345.50;4766192;30;20031;-89
2022/11/02 01:53:43;;;;;;;4.97;1.33;;;;;;;14.19;59.45;101365.50;4770260;30;20023;-89
2022/11/02 01:56:13;;;;;;;8.52;0.80;;;;;;;14.02;59.24;101347.66;4774637;29;20040;-88
2022/11/02 01:58:38;;;;;;;8.05;1.80;;;;;;;13.95;59.16;101347.06;4771066;30;20119;-89
2022/11/02 02:01:05;;;;;;;12.93;1.30;;;;;;;14.06;59.18;101351.91;4775774;29;20106;-89
2022/11/02 02:03:32;;;;;;;6.47;1.02;;;;;;;14.01;59.44;101341.47;4767400;30;20039;-88
2022/11/02 02:06:04;;;;;;;4.15;0.90;;;;;;;14.21;58.67;101367.13;4778819;30;20034;-90
2022/11/02 02:08:30;;;;;;;4.28;0.90;;;;;;;14.17;59.36;101354.91;4762184;30;20379;-90
2022/11/02 02:10:57;;;;;;;5.35;1.15;;;;;;;14.19;59.39;101379.63;4772358;29;20465;-88
2022/11/02 02:13:24;;;;;;;10.00;1.55;;;;;;;14.16;59.42;101350.53;4772971;30;20039;-89
2022/11/02 02:16:10;;;;;;;8.57;1.52;;;;;;;14.03;59.64;101352.91;4778722;29;20035;-89
2022/11/02 02:19:25;;;;;;;5.07;1.15;;;;;;;14.08;59.87;101357.13;4765655;30;20038;-89
2022/11/02 02:22:14;;;;;;;5.40;1.52;;;;;;;13.92;60.22;101364.97;4718986;30;20059;-89
2022/11/02 02:25:01;;;;;;;5.47;1.10;;;;;;;13.89;60.33;101373.06;4765187;29;20031;-89
2022/11/02 02:27:45;;;;;;;6.90;1.33;;;;;;;13.88;60.39;101366.03;4781763;30;20036;-89
2022/11/02 02:30:11;;;;;;;5.82;1.00;;;;;;;13.70;61.19;101365.91;4777336;30;20059;-90
2022/11/02 02:33:15;;;;;;;9.98;1.25;;;;;;;13.82;60.83;101369.84;4780117;29;20493;-89
2022/11/02 02:35:59;;;;;;;5.90;1.08;;;;;;;13.87;60.64;101356.34;4711151;30;20041;-89
2022/11/02 02:38:44;;;;;;;7.35;1.60;;;;;;;13.85;61.18;101367.03;4696771;30;20048;-89
2022/11/02 02:41:24;;;;;;;8.20;1.50;;;;;;;13.70;61.03;101365.06;4736448;30;20048;-89
2022/11/02 02:43:53;;;;;;;6.75;1.10;;;;;;;13.63;61.63;101358.31;4779635;30;20027;-89
2022/11/02 02:46:24;;;;;;;6.85;1.25;;;;;;;13.63;61.97;101372.44;4784565;29;20404;-90
2022/11/02 02:48:54;;;;;;;8.52;1.63;;;;;;;13.63;61.86;101368.94;4767266;29;20031;-90
2022/11/02 02:51:31;;;;;;;8.13;1.60;;;;;;;13.66;61.76;101384.72;4763167;30;20101;-89
2022/11/02 02:54:01;;;;;;;10.52;1.40;;;;;;;13.60;61.88;101375.22;4759019;30;20028;-90
2022/11/02 02:56:31;;;;;;;5.03;1.40;;;;;;;13.61;61.53;101382.25;4768003;30;20071;-89
2022/11/02 02:59:04;;;;;;;6.38;1.48;;;;;;;13.64;61.51;101374.16;4783144;29;20067;-88
2022/11/02 03:01:30;;;;;;;9.93;1.58;;;;;;;13.69;61.35;101388.13;4773129;29;20047;-89
2022/11/02 03:03:55;;;;;;;7.63;1.52;;;;;;;13.64;61.42;101379.47;4774662;30;20550;-88
2022/11/02 03:06:20;;;;;;;10.35;2.05;;;;;;;13.52;62.19;101383.56;4779306;29;20039;-90
2022/11/02 03:08:56;;;;;;;8.17;1.30;;;;;;;13.51;61.39;101359.69;4776003;30;20028;-89
2022/11/02 03:11:22;;;;;;;6.38;1.77;;;;;;;13.55;61.05;101371.91;4781507;30;20646;-89
2022/11/02 03:14:28;;;;;;;5.85;1.65;;;;;;;13.59;60.95;101372.66;4777314;30;20024;-88
2022/11/02 03:17:09;;;;;;;7.07;1.50;;;;;;;13.66;61.02;101395.34;4768588;29;20035;-89
2022/11/02 03:19:48;;;;;;;6.20;1.65;;;;;;;13.52;61.12;101393.28;4785998;29;20042;-89
2022/11/02 03:22:45;;;;;;;5.32;0.93;;;;;;;13.65;61.10;101389.19;4793957;29;20041;-89
2022/11/02 03:25:27;;;;;;;9.50;1.70;;;;;;;13.52;60.72;101378.25;4774204;29;20234;-89
2022/11/02 03:28:10;;;;;;;6.18;1.27;;;;;;;13.68;60.58;101406.78;4777121;29;20026;-90
2022/11/02 03:30:43;;;;;;;7.00;1.38;;;;;;;13.44;60.89;101384.81;4777206;29;20035;-89
2022/11/02 03:33:18;;;;;;;7.80;1.63;;;;;;;13.68;60.90;101415.63;4804687;29;20490;-89
2022/11/02 03:35:54;;;;;;;6.97;1.45;;;;;;;13.65;60.50;101397.16;4789142;29;20038;-89
2022/11/02 03:38:49;;;;;;;5.57;1.67;;;;;;;13.73;60.23;101402.13;4776661;29;20042;-89
2022/11/02 03:41:15;;;;;;;3.50;1.13;;;;;;;13.55;60.58;101394.97;4773971;30;20484;-88
2022/11/02 03:43:42;;;;;;;9.60;1.60;;;;;;;13.59;60.57;101409.84;4783329;29;20499;-90
2022/11/02 03:46:10;;;;;;;10.02;1.60;;;;;;;13.61;60.33;101421.25;4805296;29;20114;-90
2022/11/02 03:48:42;;;;;;;13.48;1.63;;;;;;;13.61;60.64;101394.69;4773678;29;20313;-91
2022/11/02 03:51:12;;;;;;;11.23;1.30;;;;;;;13.47;60.70;101411.22;4797906;29;20026;-89
2022/11/02 03:54:04;;;;;;;10.18;2.00;;;;;;;13.62;60.64;101425.66;4804508;29;20031;-89
2022/11/02 03:56:41;;;;;;;5.88;1.40;;;;;;;13.55;60.76;101417.09;4782157;29;20035;-89
2022/11/02 03:59:06;;;;;;;13.75;1.95;;;;;;;13.52;60.50;101422.50;4779413;29;20039;-90
2022/11/02 04:01:39;;;;;;;9.25;1.85;;;;;;;13.44;61.05;101417.56;4794045;29;20416;-89
2022/11/02 04:04:04;;;;;;;;;;;;;;;13.78;60.21;101435.53;4780281;29;20035;-89
2022/11/02 04:06:30;;;;;;;11.63;1.40;;;;;;;13.58;60.66;101424.94;4782636;29;19919;-89
2022/11/02 04:08:56;;;;;;;8.23;2.25;;;;;;;13.56;60.94;101432.09;4779785;29;20530;-89
2022/11/02 04:19:26;;;;;;;4.82;1.25;;;;;;;13.41;61.99;101432.75;4783584;29;20045;-90
2022/11/02 04:19:34;;;;;;;10.00;1.50;;;;;;;13.33;62.13;101427.75;4792326;29;20035;-89
2022/11/02 04:27:28;;;;;;;6.40;1.55;;;;;;;13.33;62.35;101459.63;4804641;29;20065;-90
2022/11/02 04:29:53;;;;;;;5.53;1.17;;;;;;;13.40;62.30;101465.56;4798596;29;20031;-89
2022/11/02 04:33:31;;;;;;;11.27;1.73;;;;;;;13.45;61.40;101455.59;4788408;29;20495;-89
2022/11/02 04:35:04;;;;;;;11.82;1.60;;;;;;;13.46;61.90;101462.63;4803451;29;20043;-88
2022/11/02 04:40:13;;;;;;;10.80;2.30;;;;;;;13.27;62.36;101478.47;4795216;29;20050;-89
2022/11/02 04:42:39;;;;;;;10.13;2.42;;;;;;;13.35;62.28;101492.31;4797581;29;20031;-89
2022/11/02 04:45:04;;;;;;;8.18;1.45;;;;;;;13.23;62.54;101483.03;4795388;29;20031;-88
2022/11/02 04:47:29;;;;;;;9.80;1.80;;;;;;;13.41;62.22;101507.13;4797188;29;20519;-88
2022/11/02 04:49:55;;;;;;;10.88;1.63;;;;;;;13.21;62.99;101499.94;4781448;29;20122;-88
2022/11/02 04:52:20;;;;;;;10.48;1.60;;;;;;;13.22;62.86;101499.91;4793430;29;20031;-91
2022/11/02 04:54:45;;;;;;;8.27;1.73;;;;;;;13.13;62.99;101508.22;4797541;29;20391;-90
2022/11/02 04:57:10;;;;;;;7.30;2.17;;;;;;;13.17;62.88;101511.59;4787798;29;20031;-89
2022/11/02 04:59:36;;;;;;;7.47;1.85;;;;;;;13.12;62.64;101500.31;4787361;29;20492;-90
2022/11/02 05:02:01;;;;;;;10.77;1.80;;;;;;;13.17;63.03;101515.13;4786644;29;20031;-89
2022/11/02 05:04:26;;;;;;;8.63;1.77;;;;;;;13.21;62.91;101524.69;4775627;29;20532;-90
2022/11/02 05:06:52;;;;;;;8.45;1.85;;;;;;;13.22;62.55;101530.91;4781485;29;20035;-89
2022/11/02 05:09:17;;;;;;;6.70;1.65;;;;;;;13.26;62.42;101522.75;4786306;29;20546;-89
2022/11/02 05:11:42;;;;;;;7.47;1.85;;;;;;;13.27;62.41;101527.13;4797556;29;20031;-89
2022/11/02 05:14:07;;;;;;;7.30;1.40;;;;;;;13.27;62.33;101524.47;4796696;29;20092;-89
2022/11/02 05:16:33;;;;;;;8.60;1.33;;;;;;;13.32;62.10;101534.91;4775587;29;20105;-89
2022/11/02 05:18:58;;;;;;;15.43;1.98;;;;;;;13.34;62.07;101535.72;4791523;29;20031;-89
2022/11/02 05:21:23;;;;;;;7.70;1.73;;;;;;;13.28;62.28;101538.63;4788133;29;20051;-89
2022/11/02 05:23:48;;;;;;;10.32;1.88;;;;;;;13.33;61.84;101533.13;4781151;29;20038;-89
2022/11/02 05:26:14;;;;;;;8.88;1.85;;;;;;;13.28;62.01;101552.75;4786388;29;20031;-90
2022/11/02 05:28:39;;;;;;;6.13;1.35;;;;;;;13.25;62.07;101565.31;4787545;29;20050;-90
2022/11/02 05:31:05;;;;;;;7.93;2.22;;;;;;;13.07;62.48;101564.22;4780421;29;20551;-89
2022/11/02 05:33:31;;;;;;;10.93;1.70;;;;;;;13.03;62.34;101554.63;4775468;29;20035;-89
2022/11/02 05:35:58;;;;;;;11.50;1.77;;;;;;;13.01;63.14;101570.63;4802620;29;20058;-89
2022/11/02 05:38:24;;;;;;;9.02;1.67;;;;;;;13.07;63.04;101579.28;4792188;29;20388;-90
2022/11/02 05:40:57;;;;;;;9.23;1.45;;;;;;;13.13;62.72;101584.34;4790574;29;20038;-88
2022/11/02 05:43:23;;;;;;;9.20;2.08;;;;;;;13.03;62.31;101582.03;4803545;29;20045;-90
2022/11/02 05:45:56;;;;;;;8.90;1.50;;;;;;;13.03;63.63;101589.13;4791547;29;20031;-90
2022/11/02 05:48:23;;;;;;;6.57;1.55;;;;;;;13.08;62.75;101589.81;4773925;29;20515;-89
2022/11/02 05:50:48;;;;;;;12.38;1.67;;;;;;;13.02;62.84;101590.06;4792544;29;20562;-90
2022/11/02 05:53:14;;;;;;;7.85;1.80;;;;;;;13.01;62.54;101597.16;4799891;29;20083;-89
2022/11/02 05:55:39;;;;;;;7.63;1.80;;;;;;;13.02;62.51;101600.69;4799999;29;20025;-88
2022/11/02 05:58:04;;;;;;;12.52;1.65;;;;;;;12.98;62.59;101613.19;4775785;29;20031;-89
2022/11/02 06:00:30;;;;;;;13.52;2.00;;;;;;;12.82;62.83;101587.28;4781116;29;20031;-90
2022/11/02 06:02:56;;;;;;;11.05;1.30;;;;;;;12.73;63.49;101605.31;4781763;29;20453;-89
2022/11/02 06:05:21;;;;;;;10.43;1.70;;;;;;;12.69;63.13;101600.16;4769335;30;20062;-90
2022/11/02 06:07:46;;;;;;;10.38;2.28;;;;;;;12.68;63.53;101625.84;4788203;29;20057;-89
2022/11/02 06:10:12;;;;;;;10.30;1.92;;;;;;;12.66;63.55;101625.00;4770287;29;20131;-88
2022/11/02 06:12:37;;;;;;;9.48;1.30;;;;;;;12.66;63.32;101634.75;4792308;29;20099;-90
2022/11/02 06:15:04;;;;;;;10.98;1.90;;;;;;;12.60;63.85;101649.13;4769161;29;20435;-90
2022/11/02 06:17:39;;;;;;;7.10;2.08;;;;;;;12.62;63.91;101657.00;4797406;29;20023;-89
2022/11/02 06:20:05;;;;;;;11.13;1.83;;;;;;;12.49;64.10;101640.66;4789262;29;20040;-90
2022/11/02 06:22:37;;;;;;;5.93;1.45;;;;;;;12.35;64.37;101632.31;4797488;29;20167;-89
2022/11/02 06:25:03;;;;;;;8.88;1.50;;;;;;;12.44;64.47;101658.50;4793888;29;20520;-90
2022/11/02 06:27:28;;;;;;;9.73;1.70;;;;;;;12.35;64.82;101658.81;4784589;29;20179;-90
2022/11/02 06:29:54;;;;;;;8.20;1.58;;;;;;;12.34;64.83;101665.91;4792229;29;20022;-90
2022/11/02 06:32:19;;;;;;;11.88;2.05;;;;;;;12.36;64.96;101676.50;4785111;29;20030;-90
2022/11/02 06:34:45;;;;;;;14.52;2.03;;;;;;;12.27;65.08;101674.16;4788633;29;20496;-89
2022/11/02 06:37:10;;;;;;;10.77;1.58;;;;;;;12.17;65.86;101689.47;4781906;29;20114;-90
2022/11/02 06:39:35;;;;;;;7.38;1.48;;;;;;;12.17;65.20;101693.03;4768051;29;20496;-91
2022/11/02 06:42:00;;;;;;;8.75;1.58;;;;;;;12.07;65.73;101682.75;4799231;29;20031;-89
2022/11/02 06:44:26;;;;;;;6.43;1.52;;;;;;;12.14;66.05;101700.19;4801901;29;20532;-88
2022/11/02 06:46:51;;;;;;;9.57;1.75;;;;;;;12.07;65.67;101710.13;4781112;29;20027;-89
2022/11/02 06:49:16;;;;;;;10.75;2.13;;;;;;;12.27;65.36;101721.88;4776870;29;20072;-89
2022/11/02 06:51:41;;;;;;;11.70;1.88;;;;;;;12.23;65.34;101727.28;4789487;29;20118;-89
2022/11/02 06:54:07;;;;;;;10.45;1.73;;;;;;;12.28;65.41;101737.72;4786447;29;20472;-90
2022/11/02 06:56:32;;;;;;;10.10;1.80;;;;;;;12.14;65.64;101732.88;4798399;29;20027;-89
2022/11/02 06:58:57;;;;;;;9.15;1.60;;;;;;;12.09;65.86;101756.00;4776373;29;20114;-89
2022/11/02 07:01:23;;;;;;;9.80;1.63;;;;;;;11.99;65.89;101739.53;4784793;29;20038;-90
2022/11/02 07:03:48;;;;;;;6.90;1.08;;;;;;;12.08;65.88;101758.72;4795444;29;20035;-89
2022/11/02 07:06:13;;;;;;;11.98;1.77;;;;;;;12.16;66.07;101757.53;4798271;29;20041;-89
2022/11/02 07:08:38;;;;;;;9.52;1.38;;;;;;;12.12;65.80;101769.16;4802986;29;20035;-90
2022/11/02 07:11:04;;;;;;;7.30;1.35;;;;;;;12.08;65.71;101772.84;4801238;29;20114;-89
2022/11/02 07:13:29;;;;;;;10.70;1.60;;;;;;;12.05;66.01;101775.56;4775968;29;20031;-89
2022/11/02 07:15:55;;;;;;;7.45;1.80;;;;;;;12.04;66.33;101778.28;4800262;29;20062;-90
2022/11/02 07:18:21;;;;;;;10.45;2.03;;;;;;;12.11;65.63;101801.88;4792282;29;20384;-90
2022/11/02 07:20:46;;;;;;;9.57;1.90;;;;;;;12.13;66.00;101801.84;4771338;29;20055;-89
2022/11/02 07:23:11;;;;;;;10.82;1.60;;;;;;;12.14;65.71;101806.22;4777553;30;20560;-88
2022/11/02 07:25:36;;;;;;;5.07;1.40;;;;;;;12.22;65.79;101820.13;4777810;30;20075;-90
2022/11/02 07:28:02;;;;;;;10.27;1.50;;;;;;;12.30;65.30;101819.88;4778696;29;20441;-89
2022/11/02 07:30:29;;;;;;;7.10;1.27;;;;;;;12.28;65.05;101819.06;4772469;30;20035;-90
2022/11/02 07:32:54;;;;;;;12.30;1.65;;;;;;;12.35;65.33;101815.28;4778790;29;20110;-89
2022/11/02 07:35:20;;;;;;;8.77;1.70;;;;;;;12.39;65.21;101816.91;4771469;30;20552;-89
2022/11/02 07:37:57;;;;;;;8.48;1.60;;;;;;;12.47;64.79;101836.97;4771159;29;20038;-89
2022/11/02 07:40:22;;;;;;;10.50;1.52;;;;;;;12.38;64.53;101825.81;4773021;29;20516;-88
2022/11/02 07:42:48;;;;;;;8.82;1.88;;;;;;;12.49;65.10;101847.53;4775278;29;20060;-89
2022/11/02 07:45:13;;;;;;;8.55;1.90;;;;;;;12.54;65.19;101845.59;4782593;30;20119;-89
2022/11/02 07:47:45;;;;;;;5.82;1.52;;;;;;;12.40;64.83;101827.50;4767117;30;20039;-89
2022/11/02 07:50:15;;;;;;;14.10;1.77;;;;;;;12.58;65.06;101854.34;4769441;30;20150;-88
2022/11/02 07:52:49;;;;;;;6.65;1.55;;;;;;;12.82;64.63;101836.72;4783619;29;20575;-88
2022/11/02 07:55:17;;;;;;;10.77;2.05;;;;;;;13.38;62.78;101856.06;4783634;29;20088;-88
2022/11/02 07:57:51;;;;;;;7.20;1.23;;;;;;;14.13;61.05;101865.69;4786194;29;20556;-87
2022/11/02 08:00:17;;;;;;;11.68;1.60;;;;;;;14.61;58.79;101844.28;4787105;29;20035;-89
2022/11/02 08:02:42;;;;;;;7.75;1.60;;;;;;;14.99;57.52;101839.16;4787990;29;20035;-88
2022/11/02 08:05:07;;;;;;;8.45;1.95;;;;;;;15.41;56.12;101856.88;4771724;29;20032;-88
2022/11/02 08:07:33;;;;;;;7.50;1.48;;;;;;;15.77;55.43;101857.94;4794408;29;20034;-88
2022/11/02 08:09:58;;;;;;;9.60;1.60;;;;;;;15.80;54.70;101860.44;4768863;30;20066;-88
2022/11/02 08:12:23;;;;;;;12.00;2.67;;;;;;;15.93;54.55;101841.22;4779152;29;20031;-88
2022/11/02 08:14:49;;;;;;;9.10;1.35;;;;;;;16.68;52.31;101865.16;4774312;29;20439;-88
2022/11/02 08:17:14;;;;;;;10.95;1.67;;;;;;;17.24;51.23;101858.78;4769342;30;20031;-87
2022/11/02 08:19:39;;;;;;;8.40;1.60;;;;;;;17.33;50.32;101876.16;4788060;29;20547;-87
2022/11/02 08:22:05;;;;;;;9.50;1.52;;;;;;;17.90;49.71;101866.00;4805451;29;20034;-87
2022/11/02 08:24:30;;;;;;;12.10;2.22;;;;;;;18.31;48.17;101884.28;4800954;29;20063;-86
2022/11/02 08:26:55;;;;;;;8.32;1.30;;;;;;;18.19;47.79;101880.50;4776756;30;20035;-87
2022/11/02 08:29:20;;;;;;;8.63;1.90;;;;;;;18.31;48.04;101882.47;4799020;29;20088;-86
2022/11/02 08:31:46;;;;;;;6.00;1.27;;;;;;;18.72;46.97;101889.16;4780609;29;20391;-86
2022/11/02 08:34:11;;;;;;;8.52;1.55;;;;;;;18.86;46.01;101881.16;4792918;29;20035;-87
2022/11/02 08:36:37;;;;;;;8.77;1.88;;;;;;;19.35;45.53;101886.28;4784059;29;20042;-86
2022/11/02 08:39:02;;;;;;;8.07;1.52;;;;;;;19.67;45.18;101889.72;4780860;29;20449;-86
2022/11/02 08:41:27;;;;;;;9.20;1.83;;;;;;;18.55;45.82;101882.03;4804296;29;20035;-87
2022/11/02 08:43:53;;;;;;;11.77;1.95;;;;;;;18.53;46.85;101886.63;4776595;29;20467;-86
2022/11/02 08:46:18;;;;;;;8.63;1.65;;;;;;;18.35;46.99;101891.19;4794219;29;20118;-88
2022/11/02 08:48:44;;;;;;;10.80;1.63;;;;;;;19.02;46.43;101903.41;4798410;29;20038;-87
2022/11/02 08:51:09;;;;;;;8.38;1.45;;;;;;;20.15;43.40;101903.72;4785092;29;20065;-87
2022/11/02 08:53:34;;;;;;;7.70;1.70;;;;;;;20.68;41.46;101910.16;4788430;29;20122;-87
2022/11/02 08:56:00;;;;;;;7.70;1.60;;;;;;;21.00;40.92;101908.03;4794595;29;20519;-87
2022/11/02 08:58:25;;;;;;;6.20;1.45;;;;;;;21.49;39.88;101899.31;4798619;29;20547;-86
2022/11/02 09:00:54;;;;;;;8.95;1.35;;;;;;;21.27;40.24;101913.38;4771204;29;20524;-87
2022/11/02 09:03:20;;;;;;;9.93;2.10;;;;;;;21.42;39.59;101918.72;4782271;30;20118;-87
2022/11/02 09:05:46;;;;;;;9.63;2.08;;;;;;;21.69;38.86;101918.63;4795638;29;20195;-87
2022/11/02 09:08:15;;;;;;;8.50;2.08;;;;;;;22.32;38.14;101915.88;4800178;29;20039;-87
2022/11/02 09:10:40;;;;;;;7.55;1.88;;;;;;;22.68;36.95;101916.88;4795519;29;20030;-86
2022/11/02 09:13:08;;;;;;;11.90;1.75;;;;;;;22.08;36.77;101920.31;4800082;29;20035;-87
2022/11/02 09:15:36;;;;;;;7.97;1.65;;;;;;;21.98;37.86;101924.66;4769802;30;20034;-86
2022/11/02 09:18:01;;;;;;;6.43;1.45;;;;;;;22.82;35.91;101911.31;4797965;29;20076;-87
2022/11/02 09:20:27;;;;;;;5.60;1.55;;;;;;;23.40;35.14;101914.97;4770500;29;20152;-87
2022/11/02 09:22:52;;;;;;;6.20;2.05;;;;;;;23.11;36.01;101922.63;4778553;29;20043;-87
2022/11/02 09:25:18;;;;;;;6.72;1.90;;;;;;;23.38;35.67;101933.16;4773493;30;20036;-87
2022/11/02 09:27:44;;;;;;;10.00;2.47;;;;;;;24.01;34.36;101921.97;4770776;30;20031;-87
2022/11/02 09:30:10;;;;;;;5.28;1.70;;;;;;;23.50;34.90;101934.06;4776417;29;20031;-86
2022/11/02 09:32:36;;;;;;;6.60;1.67;;;;;;;23.86;34.59;101924.91;4780737;29;20063;-87
2022/11/02 09:35:10;;;;;;;8.15;2.00;;;;;;;23.90;35.58;101931.81;4777381;29;20096;-87
2022/11/02 09:37:36;;;;;;;5.47;1.42;;;;;;;24.39;34.40;101936.03;4773398;30;20064;-86
2022/11/02 09:40:04;;;;;;;6.40;2.10;;;;;;;24.85;33.50;101928.66;4771420;29;20054;-87
2022/11/02 09:42:35;;;;;;;7.97;2.20;;;;;;;25.16;32.47;101938.66;4793260;29;20519;-87
2022/11/02 09:45:06;;;;;;;10.35;1.98;;;;;;;25.15;31.53;101938.78;4778636;29;20039;-88
2022/11/02 09:47:42;;;;;;;8.82;2.20;;;;;;;25.19;31.97;101940.25;4755737;30;20072;-87
2022/11/02 09:50:13;;;;;;;7.43;2.13;;;;;;;25.41;32.39;101947.38;4777933;30;20062;-87
2022/11/02 09:52:41;;;;;;;10.52;2.33;;;;;;;24.22;33.48;101950.00;4776382;30;20445;-88
2022/11/02 09:55:17;;;;;;;8.63;2.03;;;;;;;21.94;37.56;101942.00;4782026;29;20472;-88
2022/11/02 09:57:46;;;;;;;7.85;1.73;;;;;;;20.75;39.99;101945.56;4776084;30;20369;-89
2022/11/02 10:00:13;;;;;;;8.82;1.52;;;;;;;20.76;41.08;101955.38;4767885;30;20072;-89
2022/11/02 10:03:19;;;;;;;9.18;1.95;;;;;;;22.76;37.59;101949.53;4778509;30;20040;-87
2022/11/02 10:05:55;;;;;;;8.35;2.00;;;;;;;23.22;35.47;101945.22;4758788;30;20039;-87
2022/11/02 10:08:39;;;;;;;9.35;2.35;;;;;;;22.32;38.08;101948.22;4766366;30;20032;-88
2022/11/02 10:11:31;;;;;;;7.78;2.00;;;;;;;23.39;36.24;101961.00;4760564;30;20028;-88
2022/11/02 10:14:10;;;;;;;10.90;2.30;;;;;;;23.82;34.20;101969.34;4775187;29;20350;-93
2022/11/02 10:16:38;;;;;;;12.38;1.75;;;;;;;23.40;35.04;101974.34;4785189;29;20288;-93
2022/11/02 10:19:12;;;;;;;6.25;1.65;;;;;;;24.48;33.81;101976.78;4785725;29;20027;-93
2022/11/02 10:21:39;;;;;;;7.57;1.67;;;;;;;25.64;32.50;101983.31;4763797;30;20047;-93
2022/11/02 10:24:23;;;;;;;9.55;1.95;;;;;;;26.75;31.32;101994.34;4779006;30;20114;-92
2022/11/02 10:26:48;;;;;;;5.65;1.75;;;;;;;25.67;30.06;101983.06;4776235;30;20054;-93
2022/11/02 10:29:25;;;;;;;5.80;1.90;;;;;;;26.16;30.87;101987.81;4772175;30;20035;-93
2022/11/02 10:31:50;;;;;;;9.15;1.85;;;;;;;27.09;29.76;101985.84;4773906;30;20031;-93
2022/11/02 10:34:25;;;;;;;5.78;1.83;;;;;;;26.82;29.02;101978.38;4782439;29;20033;-93
2022/11/02 10:37:03;;;;;;;9.93;2.00;;;;;;;26.23;30.25;101987.28;4785059;29;20061;-94
2022/11/02 10:39:38;;;;;;;10.60;1.80;;;;;;;25.63;31.88;101978.91;4766540;30;20028;-94
2022/11/02 10:42:28;;;;;;;7.22;1.90;;;;;;;27.38;29.96;101975.88;4765967;30;20042;-94
2022/11/02 10:45:02;;;;;;;8.40;1.77;;;;;;;28.23;27.91;101982.28;4773831;29;20096;-92
2022/11/02 10:47:55;;;;;;;7.28;1.77;;;;;;;27.82;28.14;101992.56;4796242;29;20027;-93
2022/11/02 10:50:46;;;;;;;11.32;2.13;;;;;;;26.79;29.41;101997.63;4774333;29;20127;-93
2022/11/02 10:53:15;;;;;;;12.52;2.20;;;;;;;27.44;27.90;101986.16;4774623;29;20071;-92
2022/11/02 10:55:53;;;;;;;9.60;2.05;;;;;;;28.03;26.77;101991.53;4771108;30;20478;-92
2022/11/02 10:58:20;;;;;;;7.93;1.88;;;;;;;26.91;26.96;102008.25;4779404;29;20116;-95
2022/11/02 11:00:47;;;;;;;8.23;1.42;;;;;;;26.55;27.37;102015.13;4774991;30;20027;-93
2022/11/02 11:03:17;;;;;;;8.35;1.67;;;;;;;27.45;26.92;101996.00;4782066;30;20046;-94
2022/11/02 11:05:48;;;;;;;8.52;1.85;;;;;;;28.00;26.99;102000.84;4772272;30;20054;-92
2022/11/02 11:08:37;;;;;;;7.43;1.67;;;;;;;28.27;26.44;102000.03;4779577;30;20058;-93
2022/11/02 11:11:14;;;;;;;9.65;1.98;;;;;;;28.09;26.00;102007.25;4768989;30;20035;-93
2022/11/02 11:13:41;;;;;;;8.70;1.40;;;;;;;28.59;24.60;101996.06;4776374;30;20039;-92
2022/11/02 11:16:07;;;;;;;5.63;1.60;;;;;;;29.47;23.98;101995.31;4781157;29;20031;-93
2022/11/02 11:18:33;;;;;;;5.95;1.88;;;;;;;29.52;23.87;101983.06;4777460;29;20035;-94
2022/11/02 11:20:59;;;;;;;6.88;1.80;;;;;;;29.10;24.37;102003.66;4776184;29;20048;-93
2022/11/02 11:23:26;;;;;;;7.07;1.30;;;;;;;28.23;24.33;101995.91;4777413;29;20680;-93
2022/11/02 11:26:03;;;;;;;9.10;1.85;;;;;;;28.94;24.86;102003.44;4778923;30;20031;-92
2022/11/02 11:28:41;;;;;;;7.63;1.58;;;;;;;29.18;23.87;102011.03;4776026;29;20036;-92
2022/11/02 11:31:13;;;;;;;6.63;1.70;;;;;;;29.75;23.28;101997.94;4778489;29;20515;-92
2022/11/02 11:33:55;;;;;;;8.45;1.90;;;;;;;30.43;22.90;101991.72;4777248;29;20027;-92
2022/11/02 11:36:23;;;;;;;6.57;1.48;;;;;;;27.94;24.50;101994.13;4766845;30;20035;-92
2022/11/02 11:38:49;;;;;;;6.57;1.40;;;;;;;26.73;26.33;101993.63;4763996;29;20035;-93
2022/11/02 11:41:15;;;;;;;5.75;1.42;;;;;;;26.56;26.29;101983.44;4783082;29;20027;-94
2022/11/02 11:43:43;;;;;;;5.60;1.50;;;;;;;27.22;25.62;101983.72;4775736;30;20024;-93
2022/11/02 11:46:11;;;;;;;8.20;1.48;;;;;;;26.65;26.69;101977.19;4787161;30;20035;-93
2022/11/02 11:48:41;;;;;;;8.27;1.52;;;;;;;26.24;26.98;101975.44;4783354;29;20023;-93